sim
Sign-in with your pilot id or email,
or register
Callsign
Passwort

Schedule Details

Flight Number: DLH2050
Departure: Munich Airport (EDDM) at 18:00
Arrival: Berlin Tegel Airport (EDDT) at 19:10
Route: Lufthansa Passenger Schedule. Enter filed route here before submitting Pirep.

Weather Information
Getting current METAR information for EDDM 190250Z 07003KT CAVOK 05/04 Q1020 NOSIG
Getting current METAR information for EDDT 190250Z 06004KT 030V100 CAVOK 09/04 Q1025 NOSIG

Schedule Frequency

Route Map